ADDS METAR Data INFO
IDs: Format: Raw Decoded Include TAF

Data at: 2043 UTC 15 Aug 2018

KSUA 151947Z 10010KT 7SM VCTS SCT025 32/24 A3010

KSUA 151759Z 1518/1618 11010KT P6SM VCTS SCT035CB
  FM151900 11011KT P6SM FEW040
  FM160000 12006KT P6SM FEW025
  FM161400 12010KT P6SM SCT025